KPAE/PAE METAR and TAF weather

Enter ICAO airport designator
Station Type Date Time Source
KPAE METAR 2022/12/05 14:53 UTC NOAA

KPAE 051453Z 00000KT 10SM BKN030 M02/M04 A3001 RMK AO2 SLP169 I1000 I3000 T10171039 51002


Station Type Date Time Source
KPAE Decoded METAR 2022/12/05 14:53 UTC NOAA

EVERETT SNOHOMISH COUNTY, WA, United States (KPAE) 47-55N 122-17W 180M
Dec 05, 2022 - 09:53 AM EST / 2022.12.05 1453 UTC
Wind: Calm:0
Visibility: 10 mile(s):0
Sky conditions: mostly cloudy
Temperature: 28.9 F (-1.7 C)
Dew Point: 25.0 F (-3.9 C)
Relative Humidity: 84%
Pressure (altimeter): 30.01 in. Hg (1016 hPa)
Pressure tendency: 0.01 inches (0.2 hPa) higher than three hours ago
ob: KPAE 051453Z 00000KT 10SM BKN030 M02/M04 A3001 RMK AO2 SLP169 I1000 I3000 T10171039 51002
cycle: 15

Station Type Date Time Source
KPAE TAF 2022/12/05 12:30 UTC NOAA

TAF KPAE 051126Z 0512/0612 00000KT P6SM SCT020
TEMPO 0512/0516 BKN020
FM051600 32003KT P6SM OVC015
FM060600 00000KT P6SM OVC007

Example: see airport list